Time;durP1;ratioP1;P1;durP2;ratioP2;P2;SDS_P1;SDS_P2;PMS_P1;PMS_P2;Temp;Humidity;BMP_temperature;BMP_pressure;BME280_temperature;BME280_humidity;BME280_pressure;Samples;Min_cycle;Max_cycle;Signal;HPM_P1;HPM_P2
2024/02/27 00:00:52;;;;;;;32.70;18.60;;;;;;;7.32;71.91;98673.81;105054;1257;110563;-73
2024/02/27 00:03:40;;;;;;;38.30;18.40;;;;;;;7.31;71.73;98670.17;104879;1260;97924;-74
2024/02/27 00:06:09;;;;;;;37.10;19.40;;;;;;;7.31;71.98;98671.59;105204;1261;110522;-72
2024/02/27 00:08:37;;;;;;;35.70;18.10;;;;;;;7.32;71.72;98671.17;105197;1256;96665;-72
2024/02/27 00:11:05;;;;;;;34.90;18.10;;;;;;;7.30;71.97;98669.90;104824;1264;97895;-72
2024/02/27 00:13:33;;;;;;;35.00;18.30;;;;;;;7.28;71.85;98670.88;105296;1254;110502;-73
2024/02/27 00:16:01;;;;;;;35.80;18.60;;;;;;;7.26;71.77;98672.06;105268;1260;96602;-73
2024/02/27 00:18:29;;;;;;;35.10;17.30;;;;;;;7.25;71.83;98675.87;105226;1258;108250;-71
2024/02/27 00:20:57;;;;;;;33.80;17.70;;;;;;;7.21;71.89;98665.89;105065;1264;96561;-73
2024/02/27 00:23:27;;;;;;;35.40;18.20;;;;;;;7.19;71.67;98672.52;105219;1253;97797;-73
2024/02/27 00:25:55;;;;;;;34.50;17.50;;;;;;;7.16;71.93;98669.70;105445;1255;110488;-75
2024/02/27 00:28:23;;;;;;;32.50;17.30;;;;;;;7.15;71.98;98675.75;105266;1252;97531;-74
2024/02/27 00:30:51;;;;;;;34.90;17.70;;;;;;;7.13;72.14;98678.72;105154;1264;110358;-72
2024/02/27 00:33:19;;;;;;;33.00;17.10;;;;;;;7.12;72.00;98681.07;105152;1264;96578;-74
2024/02/27 00:35:48;;;;;;;34.50;17.80;;;;;;;7.12;72.06;98678.81;105062;1256;96945;-74
2024/02/27 00:38:16;;;;;;;32.30;16.80;;;;;;;7.11;72.10;98682.39;105004;1264;110203;-73
2024/02/27 00:40:44;;;;;;;31.40;17.80;;;;;;;7.12;72.04;98681.42;105039;1256;96608;-72
2024/02/27 00:43:12;;;;;;;35.30;19.20;;;;;;;7.13;72.01;98681.05;105151;1266;107648;-73
2024/02/27 00:45:40;;;;;;;37.80;18.50;;;;;;;7.10;72.09;98680.17;105004;1256;97626;-72
2024/02/27 00:48:08;;;;;;;32.00;17.70;;;;;;;7.09;72.09;98672.80;105261;1257;96584;-73
2024/02/27 00:50:39;;;;;;;38.00;18.10;;;;;;;7.09;72.23;98671.40;105801;1253;109682;-72
2024/02/27 00:53:07;;;;;;;35.60;18.90;;;;;;;7.09;72.09;98667.55;105521;1254;96545;-72
2024/02/27 00:55:35;;;;;;;36.40;19.30;;;;;;;7.07;72.17;98669.23;105239;1254;107437;-76
2024/02/27 00:58:03;;;;;;;28.60;15.50;;;;;;;7.06;72.13;98668.81;105007;1264;96578;-73
2024/02/27 01:00:31;;;;;;;33.80;16.60;;;;;;;7.02;72.14;98669.92;105208;1256;96549;-74
2024/02/27 01:02:59;;;;;;;32.50;17.70;;;;;;;6.97;72.12;98666.34;105209;1256;110670;-73
2024/02/27 01:05:27;;;;;;;36.10;19.90;;;;;;;6.93;72.12;98665.71;105215;1256;96704;-73
2024/02/27 01:07:55;;;;;;;35.60;18.10;;;;;;;6.91;72.21;98661.30;105190;1251;109285;-72
2024/02/27 01:10:23;;;;;;;33.90;17.40;;;;;;;6.90;72.51;98663.85;105277;1255;96572;-71
2024/02/27 01:12:51;;;;;;;33.90;16.60;;;;;;;6.90;72.45;98658.52;105101;1251;96604;-73
2024/02/27 01:15:19;;;;;;;33.90;17.70;;;;;;;6.90;72.54;98660.11;105079;1252;110164;-72
2024/02/27 01:17:47;;;;;;;34.40;16.40;;;;;;;6.89;72.41;98653.98;105146;1255;96666;-73
2024/02/27 01:20:15;;;;;;;33.70;17.40;;;;;;;6.88;72.31;98654.42;105022;1257;108130;-77
2024/02/27 01:22:44;;;;;;;34.80;16.40;;;;;;;6.85;72.48;98652.30;104783;1257;96643;-77
2024/02/27 01:25:12;;;;;;;33.40;17.80;;;;;;;6.83;72.46;98650.30;104995;1258;96690;-73
2024/02/27 01:27:40;;;;;;;31.40;16.30;;;;;;;6.86;72.54;98651.88;104995;1256;110388;-72
2024/02/27 01:30:09;;;;;;;26.40;14.90;;;;;;;6.88;72.65;98652.67;105083;1255;97832;-75
2024/02/27 01:32:37;;;;;;;28.20;15.70;;;;;;;6.90;72.62;98655.52;105110;1256;107528;-73
2024/02/27 01:35:05;;;;;;;27.90;14.00;;;;;;;6.93;72.58;98654.64;105218;1257;97518;-71
2024/02/27 01:37:34;;;;;;;32.20;14.30;;;;;;;6.94;72.77;98659.86;105082;1257;96603;-72
2024/02/27 01:40:04;;;;;;;27.80;15.20;;;;;;;6.92;72.66;98657.34;105051;1253;109449;-72
2024/02/27 01:42:32;;;;;;;28.40;15.90;;;;;;;6.87;72.54;98662.40;104865;1257;96697;-73
2024/02/27 01:45:00;;;;;;;27.10;14.80;;;;;;;6.85;72.61;98662.00;104779;1264;108119;-73
2024/02/27 01:47:29;;;;;;;28.80;16.00;;;;;;;6.81;72.36;98656.96;105464;1273;96639;-73
2024/02/27 01:49:58;;;;;;;32.60;16.70;;;;;;;6.77;72.49;98658.99;104967;1258;96507;-75
2024/02/27 01:52:26;;;;;;;31.40;15.60;;;;;;;6.73;72.50;98662.77;105170;1256;109935;-71
2024/02/27 01:54:54;;;;;;;27.30;15.30;;;;;;;6.67;72.57;98663.65;105051;1258;96587;-72
2024/02/27 01:57:23;;;;;;;32.60;17.10;;;;;;;6.59;72.23;98663.98;105156;1266;109493;-73
2024/02/27 01:59:51;;;;;;;29.30;17.10;;;;;;;6.47;72.40;98665.80;105225;1255;96610;-74
2024/02/27 02:02:20;;;;;;;30.70;16.70;;;;;;;6.40;72.55;98663.55;105279;1256;96602;-72
2024/02/27 02:04:48;;;;;;;34.80;17.80;;;;;;;6.34;72.41;98666.94;105708;1256;110426;-73
2024/02/27 02:07:17;;;;;;;38.20;19.80;;;;;;;6.25;72.36;98665.19;105734;1258;96584;-72
2024/02/27 02:09:45;;;;;;;37.20;18.90;;;;;;;6.18;72.71;98666.34;105101;1266;108399;-73
2024/02/27 02:12:14;;;;;;;32.20;17.80;;;;;;;6.17;72.77;98667.77;105044;1258;96706;-71
2024/02/27 02:14:42;;;;;;;39.10;20.40;;;;;;;6.13;72.62;98669.23;105014;1256;97552;-72
2024/02/27 02:17:10;;;;;;;33.60;17.90;;;;;;;6.09;72.90;98670.23;105299;1251;108591;-72
2024/02/27 02:19:38;;;;;;;35.50;17.50;;;;;;;6.05;72.79;98673.29;105273;1256;97625;-74
2024/02/27 02:22:06;;;;;;;33.30;16.50;;;;;;;5.99;73.06;98677.11;105768;1257;107640;-72
2024/02/27 02:24:37;;;;;;;36.10;17.90;;;;;;;5.91;72.76;98677.38;105102;1266;97429;-73
2024/02/27 02:27:05;;;;;;;37.50;18.30;;;;;;;5.83;72.66;98675.60;104965;1256;97970;-74
2024/02/27 02:29:33;;;;;;;39.80;18.60;;;;;;;5.75;72.81;98680.42;104914;1251;110621;-72
2024/02/27 02:32:03;;;;;;;33.60;16.90;;;;;;;5.75;72.95;98677.12;105123;1253;96599;-73
2024/02/27 02:34:31;;;;;;;31.00;16.80;;;;;;;5.78;73.31;98682.20;105099;1267;107619;-73
2024/02/27 02:36:59;;;;;;;32.80;17.00;;;;;;;5.81;73.14;98679.55;105144;1262;97527;-73
2024/02/27 02:39:27;;;;;;;33.00;16.70;;;;;;;5.82;73.36;98677.22;105734;1256;96594;-72
2024/02/27 02:41:56;;;;;;;34.10;17.90;;;;;;;5.82;73.37;98675.33;105301;1255;110524;-73
2024/02/27 02:44:24;;;;;;;31.60;16.10;;;;;;;5.82;73.30;98679.35;105405;1256;96590;-72
2024/02/27 02:46:52;;;;;;;31.40;17.70;;;;;;;5.82;73.19;98688.48;105025;1256;108598;-74
2024/02/27 02:49:20;;;;;;;37.10;17.50;;;;;;;5.78;72.82;98695.78;104943;1257;96648;-76
2024/02/27 02:51:48;;;;;;;43.90;24.60;;;;;;;5.71;73.09;98715.14;105205;1258;97940;-73
2024/02/27 02:54:16;;;;;;;34.20;18.00;;;;;;;5.70;73.20;98716.69;105234;1254;110227;-72
2024/02/27 02:56:45;;;;;;;37.00;19.00;;;;;;;5.70;73.02;98718.44;105041;1272;96698;-75
2024/02/27 02:59:13;;;;;;;36.20;18.50;;;;;;;5.67;73.11;98715.61;105354;1264;108326;-72
2024/02/27 03:01:41;;;;;;;35.30;18.10;;;;;;;5.67;73.31;98719.27;105573;1267;96651;-72
2024/02/27 03:04:09;;;;;;;36.10;17.30;;;;;;;5.69;73.36;98719.55;105194;1257;96595;-72
2024/02/27 03:06:37;;;;;;;42.00;18.70;;;;;;;5.69;73.52;98722.34;105209;1251;109901;-73
2024/02/27 03:09:05;;;;;;;32.90;17.60;;;;;;;5.66;73.32;98723.73;105242;1254;97451;-75
2024/02/27 03:11:34;;;;;;;32.70;17.70;;;;;;;5.66;73.50;98727.43;105245;1267;107583;-73
2024/02/27 03:14:03;;;;;;;34.70;17.50;;;;;;;5.65;73.49;98727.79;105202;1271;97894;-71
2024/02/27 03:16:31;;;;;;;34.70;18.20;;;;;;;5.65;73.49;98725.70;105180;1251;96556;-73
2024/02/27 03:18:59;;;;;;;37.40;17.60;;;;;;;5.66;73.48;98728.87;105349;1257;110146;-71
2024/02/27 03:21:27;;;;;;;34.80;16.90;;;;;;;5.66;73.70;98730.77;105104;1256;96523;-72
2024/02/27 03:23:55;;;;;;;31.50;16.80;;;;;;;5.68;73.61;98732.80;104939;1263;107653;-77
2024/02/27 03:26:23;;;;;;;35.00;17.20;;;;;;;5.67;73.58;98735.50;104806;1257;96620;-76
2024/02/27 03:28:51;;;;;;;35.30;17.60;;;;;;;5.65;73.43;98734.52;105110;1257;96542;-71
2024/02/27 03:31:19;;;;;;;31.00;15.70;;;;;;;5.63;73.41;98735.34;105118;1256;108824;-73
2024/02/27 03:33:47;;;;;;;27.70;13.90;;;;;;;5.61;73.43;98730.17;104803;1257;96527;-72
2024/02/27 03:36:15;;;;;;;24.50;12.90;;;;;;;5.61;73.70;98726.65;104934;1267;107824;-74
2024/02/27 03:38:43;;;;;;;24.80;11.70;;;;;;;5.67;73.81;98729.52;104956;1267;97905;-74
2024/02/27 03:41:13;;;;;;;19.70;10.20;;;;;;;5.73;73.91;98730.75;105005;1251;96691;-72
2024/02/27 03:43:42;;;;;;;16.10;9.70;;;;;;;5.79;73.67;98727.91;104659;1267;109940;-71
2024/02/27 03:46:10;;;;;;;14.70;8.30;;;;;;;5.89;73.92;98724.73;104920;1255;96594;-72
2024/02/27 03:48:38;;;;;;;13.90;8.00;;;;;;;5.98;73.84;98725.57;105071;1262;108592;-72
2024/02/27 03:51:06;;;;;;;13.40;7.70;;;;;;;6.07;73.88;98728.94;104800;1267;96613;-77
2024/02/27 03:53:35;;;;;;;17.10;8.10;;;;;;;6.15;73.98;98731.42;105049;1251;96417;-73
2024/02/27 03:56:05;;;;;;;15.20;7.50;;;;;;;6.23;73.92;98742.09;104935;1258;110471;-74
2024/02/27 03:58:35;;;;;;;11.60;6.20;;;;;;;6.30;74.00;98755.46;105059;1258;96575;-72
2024/02/27 04:01:03;;;;;;;14.40;6.90;;;;;;;6.34;73.91;98761.50;104977;1266;107246;-72
2024/02/27 04:03:31;;;;;;;22.80;11.80;;;;;;;6.37;73.88;98769.58;105084;1257;96593;-74
2024/02/27 04:06:00;;;;;;;26.40;12.70;;;;;;;6.29;73.54;98769.90;105212;1251;98084;-72
2024/02/27 04:08:28;;;;;;;28.20;14.20;;;;;;;6.16;73.54;98768.88;105068;1254;110179;-73
2024/02/27 04:10:56;;;;;;;27.30;14.80;;;;;;;6.08;73.56;98769.00;105198;1258;96638;-72
2024/02/27 04:13:24;;;;;;;26.20;14.00;;;;;;;6.01;73.38;98773.45;105173;1256;107311;-72
2024/02/27 04:15:52;;;;;;;28.50;14.60;;;;;;;5.94;73.67;98773.84;105221;1267;97086;-72
2024/02/27 04:18:21;;;;;;;28.00;14.00;;;;;;;5.91;73.51;98775.95;105264;1251;96510;-75
2024/02/27 04:20:49;;;;;;;26.00;13.30;;;;;;;5.89;73.73;98774.87;105261;1265;110509;-72
2024/02/27 04:23:17;;;;;;;28.20;14.80;;;;;;;5.86;73.87;98780.50;105228;1266;96603;-72
2024/02/27 04:25:45;;;;;;;27.00;14.10;;;;;;;5.84;73.53;98788.16;105170;1266;107907;-72
2024/02/27 04:28:13;;;;;;;26.70;15.00;;;;;;;5.75;73.35;98798.52;105011;1264;96613;-71
2024/02/27 04:30:41;;;;;;;30.00;14.70;;;;;;;5.67;73.66;98806.36;104907;1267;96538;-73
2024/02/27 04:33:09;;;;;;;29.90;13.80;;;;;;;5.62;73.46;98806.80;104942;1256;110291;-77
2024/02/27 04:35:38;;;;;;;28.70;15.40;;;;;;;5.59;73.75;98804.69;105106;1251;97258;-71
2024/02/27 04:38:06;;;;;;;26.20;14.90;;;;;;;5.59;73.83;98806.99;105849;1251;107443;-70
2024/02/27 04:40:33;;;;;;;28.60;13.60;;;;;;;5.58;73.72;98802.62;104909;1251;96498;-71
2024/02/27 04:43:01;;;;;;;30.90;14.90;;;;;;;5.59;73.74;98808.59;104712;1257;96657;-71
2024/02/27 04:45:29;;;;;;;27.90;14.20;;;;;;;5.54;73.69;98813.61;104787;1251;110391;-74
2024/02/27 04:47:59;;;;;;;24.30;13.10;;;;;;;5.48;73.53;98809.72;104785;1256;97887;-73
2024/02/27 04:50:28;;;;;;;30.00;14.80;;;;;;;5.44;73.67;98807.99;104824;1257;108407;-74
2024/02/27 04:52:57;;;;;;;26.10;14.60;;;;;;;5.40;73.73;98809.09;105500;1257;96660;-72
2024/02/27 04:55:26;;;;;;;26.70;13.80;;;;;;;5.38;73.85;98810.95;105464;1251;96690;-74
2024/02/27 04:57:54;;;;;;;25.90;14.50;;;;;;;5.37;73.86;98804.86;105084;1257;110460;-73
2024/02/27 05:00:22;;;;;;;28.10;14.50;;;;;;;5.35;73.86;98807.40;105092;1255;96583;-74
2024/02/27 05:02:50;;;;;;;28.00;15.40;;;;;;;5.35;74.00;98812.19;105627;1253;108097;-71
2024/02/27 05:05:18;;;;;;;29.30;14.10;;;;;;;5.34;73.96;98812.55;104901;1257;96674;-72
2024/02/27 05:07:47;;;;;;;25.50;13.40;;;;;;;5.32;73.93;98815.86;105137;1253;96662;-71
2024/02/27 05:10:15;;;;;;;24.50;13.10;;;;;;;5.30;73.74;98814.52;105023;1251;110191;-72
2024/02/27 05:12:43;;;;;;;24.10;12.40;;;;;;;5.28;73.77;98812.05;105162;1252;97580;-81
2024/02/27 05:15:11;;;;;;;27.30;13.80;;;;;;;5.24;73.84;98812.95;105908;1251;107644;-79
2024/02/27 05:17:40;;;;;;;28.00;14.60;;;;;;;5.25;73.94;98815.19;105793;1252;96720;-81
2024/02/27 05:20:09;;;;;;;29.20;15.70;;;;;;;5.25;73.84;98814.64;105827;1256;96582;-80
2024/02/27 05:22:39;;;;;;;31.60;16.40;;;;;;;5.24;73.67;98817.90;105909;1251;107810;-81
2024/02/27 05:25:07;;;;;;;26.60;14.70;;;;;;;5.18;73.64;98819.97;105795;1253;96594;-81
2024/02/27 05:27:35;;;;;;;28.50;15.30;;;;;;;5.11;73.71;98822.43;105611;1257;106909;-81
2024/02/27 05:30:07;;;;;;;32.30;15.80;;;;;;;5.05;73.58;98824.52;105430;1257;97893;-81
2024/02/27 05:32:35;;;;;;;30.30;16.10;;;;;;;5.01;73.73;98830.17;105461;1256;96495;-81
2024/02/27 05:35:04;;;;;;;29.80;15.70;;;;;;;5.02;73.64;98830.86;105763;1251;110551;-81
2024/02/27 05:37:35;;;;;;;30.80;16.20;;;;;;;5.00;73.82;98838.12;105610;1268;97017;-74
2024/02/27 05:40:05;;;;;;;29.20;14.50;;;;;;;5.01;73.91;98839.13;105501;1255;108672;-73
2024/02/27 05:42:37;;;;;;;29.30;16.20;;;;;;;4.99;73.71;98840.33;105885;1264;97804;-74
2024/02/27 05:45:06;;;;;;;29.50;14.80;;;;;;;4.98;73.79;98841.41;105742;1251;96590;-74
2024/02/27 05:47:34;;;;;;;26.80;14.70;;;;;;;4.99;73.96;98843.63;105711;1251;109494;-73
2024/02/27 05:50:03;;;;;;;29.40;14.50;;;;;;;4.99;73.93;98845.41;105290;1267;96593;-73
2024/02/27 05:52:35;;;;;;;22.70;12.90;;;;;;;5.00;73.92;98848.70;105451;1256;107208;-74
2024/02/27 05:55:04;;;;;;;24.70;15.10;;;;;;;5.01;73.89;98850.75;105620;1256;96670;-74
2024/02/27 05:57:32;;;;;;;25.30;12.50;;;;;;;4.99;74.00;98856.66;105728;1252;96604;-74
2024/02/27 06:00:00;;;;;;;25.10;13.40;;;;;;;5.00;74.10;98860.80;105642;1251;109354;-73
2024/02/27 06:02:32;;;;;;;25.30;13.20;;;;;;;5.02;74.09;98856.12;105763;1253;97478;-74
2024/02/27 06:05:00;;;;;;;25.10;13.00;;;;;;;5.03;74.09;98858.38;105754;1251;106963;-76
2024/02/27 06:07:28;;;;;;;22.00;12.80;;;;;;;5.05;74.23;98863.02;108741;1251;94306;-72
2024/02/27 06:09:56;;;;;;;26.40;13.50;;;;;;;5.11;74.26;98865.36;105496;1251;96496;-72
2024/02/27 06:12:24;;;;;;;21.60;11.60;;;;;;;5.17;74.28;98865.50;105401;1255;110077;-74
2024/02/27 06:14:52;;;;;;;23.40;11.90;;;;;;;5.23;74.26;98874.39;105377;1255;97505;-73
2024/02/27 06:17:20;;;;;;;19.40;10.70;;;;;;;5.27;74.28;98874.48;105300;1251;107150;-74
2024/02/27 06:19:55;;;;;;;20.60;10.40;;;;;;;5.36;74.38;98869.62;105776;1256;96623;-74
2024/02/27 06:22:23;;;;;;;19.00;9.60;;;;;;;5.52;74.77;98873.86;105443;1252;97252;-74
2024/02/27 06:24:51;;;;;;;20.80;10.90;;;;;;;5.65;74.66;98872.23;105412;1255;110015;-74
2024/02/27 06:27:19;;;;;;;18.40;9.30;;;;;;;5.70;74.65;98872.33;105281;1253;97545;-74
2024/02/27 06:29:49;;;;;;;19.60;9.70;;;;;;;5.75;74.68;98877.35;105490;1252;107329;-74
2024/02/27 06:32:16;;;;;;;20.30;9.80;;;;;;;5.82;74.47;98880.98;105596;1256;96660;-74
2024/02/27 06:34:47;;;;;;;18.40;10.50;;;;;;;5.89;74.39;98882.91;105638;1255;96741;-74
2024/02/27 06:37:18;;;;;;;21.20;11.90;;;;;;;5.92;74.26;98887.86;105810;1251;109100;-73
2024/02/27 06:39:48;;;;;;;22.10;13.90;;;;;;;5.91;74.51;98890.52;105648;1253;96566;-74
2024/02/27 06:42:16;;;;;;;30.10;15.60;;;;;;;5.90;74.45;98894.77;105533;1261;107186;-73
2024/02/27 06:44:44;;;;;;;28.60;16.00;;;;;;;5.89;74.09;98895.40;105394;1257;96508;-73
2024/02/27 06:47:12;;;;;;;30.50;16.60;;;;;;;5.86;74.20;98895.06;105372;1256;96584;-74
2024/02/27 06:49:40;;;;;;;33.10;17.00;;;;;;;5.82;74.28;98899.13;105386;1256;109909;-73
2024/02/27 06:52:08;;;;;;;31.20;16.10;;;;;;;5.80;74.44;98904.34;105331;1256;96475;-74
2024/02/27 06:54:36;;;;;;;32.30;17.50;;;;;;;5.77;74.27;98906.23;105574;1266;107653;-74
2024/02/27 06:57:04;;;;;;;36.10;17.50;;;;;;;5.76;74.49;98908.24;105390;1253;96618;-75
2024/02/27 06:59:32;;;;;;;36.70;18.80;;;;;;;5.75;74.40;98910.23;105736;1256;97912;-73
2024/02/27 07:02:00;;;;;;;38.80;19.20;;;;;;;5.77;74.55;98915.44;105716;1252;109883;-74
2024/02/27 07:04:28;;;;;;;38.70;20.10;;;;;;;5.78;74.78;98915.37;105680;1255;96539;-74
2024/02/27 07:06:56;;;;;;;37.30;18.60;;;;;;;5.77;74.73;98915.77;105567;1262;107707;-74
2024/02/27 07:09:24;;;;;;;35.80;18.20;;;;;;;5.77;74.87;98918.04;105699;1256;97922;-74
2024/02/27 07:11:52;;;;;;;35.70;18.20;;;;;;;5.78;74.97;98923.27;105829;1252;96588;-74
2024/02/27 07:14:20;;;;;;;32.70;18.00;;;;;;;5.78;74.71;98921.70;105606;1252;111130;-74
2024/02/27 07:16:48;;;;;;;33.80;17.10;;;;;;;5.81;74.95;98919.05;105475;1255;96600;-75
2024/02/27 07:19:19;;;;;;;33.80;17.30;;;;;;;5.86;74.93;98917.55;105323;1255;107272;-74
2024/02/27 07:21:48;;;;;;;;;;;;;;;5.91;74.97;98921.15;105708;1256;96613;-74
2024/02/27 07:24:16;;;;;;;31.20;16.20;;;;;;;5.95;75.21;98924.10;105567;1256;97506;-74
2024/02/27 07:26:44;;;;;;;33.20;18.40;;;;;;;6.06;75.23;98924.08;105451;1252;109922;-74
2024/02/27 07:29:13;;;;;;;32.10;17.10;;;;;;;6.17;75.23;98930.46;105580;1256;96580;-73
2024/02/27 07:31:43;;;;;;;35.60;18.60;;;;;;;6.26;75.28;98931.40;105395;1256;108154;-74
2024/02/27 07:34:14;;;;;;;33.70;17.60;;;;;;;6.34;75.42;98929.84;105311;1251;96590;-74
2024/02/27 07:36:43;;;;;;;33.50;18.20;;;;;;;6.45;75.57;98932.59;105529;1255;96542;-73
2024/02/27 07:39:11;;;;;;;34.90;17.90;;;;;;;6.57;75.46;98934.02;105509;1251;109635;-73
2024/02/27 07:41:39;;;;;;;35.70;19.60;;;;;;;6.67;75.56;98928.52;105544;1256;96699;-73
2024/02/27 07:44:07;;;;;;;40.70;21.10;;;;;;;6.75;75.40;98928.92;105570;1252;107633;-74
2024/02/27 07:46:35;;;;;;;39.30;20.00;;;;;;;6.78;75.47;98926.10;105740;1256;98206;-74
2024/02/27 07:49:03;;;;;;;39.20;20.10;;;;;;;6.84;75.56;98928.54;105374;1256;96571;-73
2024/02/27 07:51:35;;;;;;;31.70;17.50;;;;;;;6.92;75.57;98933.05;105253;1256;109901;-74
2024/02/27 07:54:03;;;;;;;35.30;19.60;;;;;;;7.01;75.63;98936.04;105258;1257;96746;-73
2024/02/27 07:56:32;;;;;;;33.10;17.70;;;;;;;7.06;75.63;98938.71;105643;1256;107626;-74
2024/02/27 07:59:01;;;;;;;34.70;16.90;;;;;;;7.12;75.72;98937.45;105626;1257;96618;-73
2024/02/27 08:01:33;;;;;;;31.20;16.70;;;;;;;7.22;75.92;98941.11;105879;1251;96510;-71
2024/02/27 08:04:01;;;;;;;34.80;17.10;;;;;;;7.33;76.28;98938.86;105520;1254;110196;-73
2024/02/27 08:06:30;;;;;;;37.00;17.40;;;;;;;7.44;76.32;98948.39;105347;1255;97764;-71
2024/02/27 08:09:00;;;;;;;36.70;19.20;;;;;;;7.53;76.37;98944.14;105489;1255;107643;-74
2024/02/27 08:11:28;;;;;;;32.10;16.00;;;;;;;7.62;76.53;98948.20;105368;1256;96591;-73
2024/02/27 08:13:57;;;;;;;33.90;18.80;;;;;;;7.72;76.38;98944.77;105363;1256;96578;-72
2024/02/27 08:16:25;;;;;;;35.10;18.90;;;;;;;7.82;76.50;98938.31;105443;1256;109492;-74
2024/02/27 08:18:53;;;;;;;35.00;18.70;;;;;;;7.88;76.56;98938.63;105218;1255;97920;-73
2024/02/27 08:21:21;;;;;;;30.20;16.40;;;;;;;7.98;76.73;98936.05;105540;1256;107196;-73
2024/02/27 08:23:49;;;;;;;29.50;16.60;;;;;;;8.07;76.76;98934.41;105362;1251;97410;-73
2024/02/27 08:26:17;;;;;;;27.70;15.50;;;;;;;8.17;76.49;98933.98;105557;1251;96588;-74
2024/02/27 08:28:45;;;;;;;29.50;15.80;;;;;;;8.26;76.65;98937.80;105326;1255;110370;-73
2024/02/27 08:31:14;;;;;;;29.90;16.60;;;;;;;8.33;76.57;98940.55;105644;1253;96610;-76
2024/02/27 08:33:42;;;;;;;30.40;16.60;;;;;;;8.38;76.51;98941.29;105742;1252;107975;-73
2024/02/27 08:36:10;;;;;;;28.40;15.80;;;;;;;8.43;76.50;98947.64;105659;1254;97504;-75
2024/02/27 08:38:42;;;;;;;30.30;16.00;;;;;;;8.48;76.57;98942.02;105671;1254;96579;-73
2024/02/27 08:41:10;;;;;;;30.40;16.30;;;;;;;8.51;76.63;98942.04;105608;1255;109689;-74
2024/02/27 08:43:42;;;;;;;28.90;15.10;;;;;;;8.55;76.78;98944.39;105715;1252;97912;-73
2024/02/27 08:46:16;;;;;;;30.30;15.80;;;;;;;8.58;76.59;98942.45;105668;1255;107296;-73
2024/02/27 08:48:45;;;;;;;29.20;17.10;;;;;;;8.60;76.64;98941.80;105670;1252;96648;-74
2024/02/27 08:51:13;;;;;;;29.80;15.60;;;;;;;8.61;76.62;98942.61;105650;1252;96591;-74
2024/02/27 08:53:41;;;;;;;30.90;16.40;;;;;;;8.60;76.63;98944.61;105696;1255;108367;-73
2024/02/27 08:56:09;;;;;;;30.10;17.10;;;;;;;8.62;76.68;98943.42;105749;1255;96597;-73
2024/02/27 08:58:37;;;;;;;26.50;15.10;;;;;;;8.65;76.62;98943.23;105514;1256;108403;-73
2024/02/27 09:01:10;;;;;;;29.40;14.60;;;;;;;8.74;76.86;98939.82;105120;1257;97948;-74
2024/02/27 09:03:40;;;;;;;26.60;14.40;;;;;;;8.86;76.84;98937.98;105262;1255;96613;-72
2024/02/27 09:06:11;;;;;;;26.40;15.40;;;;;;;8.99;76.83;98940.42;105659;1256;110039;-74
2024/02/27 09:08:41;;;;;;;23.20;14.10;;;;;;;9.10;76.93;98937.42;105628;1253;96563;-71
2024/02/27 09:11:12;;;;;;;19.80;12.00;;;;;;;9.23;77.17;98935.75;105579;1264;107702;-73
2024/02/27 09:13:43;;;;;;;23.50;13.30;;;;;;;9.39;77.12;98932.72;105567;1256;96578;-74
2024/02/27 09:16:12;;;;;;;20.10;11.70;;;;;;;9.54;77.06;98932.77;105699;1253;96510;-74
2024/02/27 09:18:40;;;;;;;22.40;13.00;;;;;;;9.64;77.01;98933.09;105528;1255;109976;-73
2024/02/27 09:21:10;;;;;;;21.20;13.20;;;;;;;9.71;76.85;98930.54;105386;1257;97509;-74
2024/02/27 09:23:38;;;;;;;25.40;12.60;;;;;;;9.78;76.93;98923.96;105621;1256;107283;-74
2024/02/27 09:26:06;;;;;;;20.90;10.90;;;;;;;9.89;76.94;98923.04;105219;1251;96559;-74
2024/02/27 09:28:34;;;;;;;18.50;9.50;;;;;;;10.01;77.01;98921.11;105451;1251;96675;-74
2024/02/27 09:31:04;;;;;;;16.90;9.70;;;;;;;10.12;76.99;98919.27;105306;1256;109366;-74
2024/02/27 09:33:34;;;;;;;18.50;10.00;;;;;;;10.23;77.07;98914.91;105573;1254;96523;-72
2024/02/27 09:36:03;;;;;;;15.90;9.40;;;;;;;10.34;76.96;98911.42;105742;1255;108919;-75
2024/02/27 09:38:31;;;;;;;12.40;8.10;;;;;;;10.50;76.98;98914.92;105768;1256;96658;-74
2024/02/27 09:41:00;;;;;;;17.20;9.10;;;;;;;10.64;77.01;98910.69;105665;1251;97912;-73
2024/02/27 09:43:32;;;;;;;13.80;9.10;;;;;;;10.78;76.98;98907.49;105564;1257;109418;-73
2024/02/27 09:46:03;;;;;;;11.80;6.90;;;;;;;10.90;77.08;98905.67;105486;1257;96753;-74
2024/02/27 09:48:43;;;;;;;11.20;7.30;;;;;;;11.09;77.08;98906.53;105602;1257;108000;-74
2024/02/27 09:51:14;;;;;;;11.60;7.20;;;;;;;11.27;77.03;98904.63;105566;1254;97125;-74
2024/02/27 09:53:44;;;;;;;10.20;6.20;;;;;;;11.42;76.84;98907.73;105664;1256;97822;-73
2024/02/27 09:56:15;;;;;;;10.40;6.20;;;;;;;11.61;77.12;98906.23;105518;1251;110560;-74
2024/02/27 09:58:43;;;;;;;10.10;6.50;;;;;;;11.85;77.05;98905.97;105532;1256;97505;-73
2024/02/27 10:01:15;;;;;;;8.30;5.80;;;;;;;12.05;77.04;98905.27;105525;1251;107599;-75
2024/02/27 10:03:47;;;;;;;9.40;5.80;;;;;;;12.19;76.64;98909.13;105493;1251;96534;-73
2024/02/27 10:06:17;;;;;;;10.90;5.90;;;;;;;12.27;76.40;98905.81;105544;1253;96616;-73
2024/02/27 10:09:03;;;;;;;21.10;8.30;;;;;;;12.39;76.59;98910.31;105523;1256;109894;-73
2024/02/27 10:11:31;;;;;;;65.60;32.40;;;;;;;12.52;76.38;98914.94;105628;1256;96581;-72
2024/02/27 10:14:11;;;;;;;37.60;17.80;;;;;;;12.46;76.01;98914.89;105702;1268;107587;-73
2024/02/27 10:16:39;;;;;;;24.10;13.00;;;;;;;12.36;76.06;98919.48;105493;1253;96594;-74
2024/02/27 10:19:07;;;;;;;22.20;12.10;;;;;;;12.30;76.21;98921.36;105498;1255;96504;-72
2024/02/27 10:21:35;;;;;;;19.90;11.50;;;;;;;12.26;76.24;98921.01;105641;1252;109448;-74
2024/02/27 10:24:03;;;;;;;23.20;13.00;;;;;;;12.25;76.16;98917.31;105556;1255;96508;-73
2024/02/27 10:26:31;;;;;;;17.90;10.60;;;;;;;12.28;76.16;98915.70;105521;1256;108144;-72
2024/02/27 10:29:00;;;;;;;19.20;10.50;;;;;;;12.33;76.17;98916.09;105789;1255;96680;-73
2024/02/27 10:31:28;;;;;;;18.30;10.40;;;;;;;12.43;76.18;98913.21;105611;1255;96628;-73
2024/02/27 10:33:56;;;;;;;16.00;9.50;;;;;;;12.48;76.02;98913.46;105287;1252;109859;-73
2024/02/27 10:36:24;;;;;;;14.10;9.10;;;;;;;12.55;76.01;98917.59;105544;1255;97270;-72
2024/02/27 10:39:07;;;;;;;17.00;10.00;;;;;;;12.64;76.15;98912.52;105545;1253;108301;-74
2024/02/27 10:41:41;;;;;;;17.60;9.90;;;;;;;12.76;76.13;98911.86;105379;1255;96865;-73
2024/02/27 10:44:09;;;;;;;14.90;8.80;;;;;;;12.88;76.09;98913.73;105231;1253;96587;-73
2024/02/27 10:46:41;;;;;;;16.40;9.10;;;;;;;12.96;75.89;98911.30;105472;1251;109071;-73
2024/02/27 10:49:09;;;;;;;13.70;9.20;;;;;;;13.02;75.89;98905.39;105535;1252;96683;-72
2024/02/27 10:51:42;;;;;;;14.90;8.10;;;;;;;13.12;75.83;98901.73;105431;1251;107611;-71
2024/02/27 10:54:18;;;;;;;12.70;7.80;;;;;;;13.24;75.80;98905.88;105575;1256;96680;-73
2024/02/27 10:56:46;;;;;;;14.30;6.60;;;;;;;13.36;75.80;98899.65;105475;1251;96709;-73
2024/02/27 10:59:15;;;;;;;9.90;5.80;;;;;;;13.54;75.85;98894.79;105441;1256;109339;-73
2024/02/27 11:03:57;;;;;;;10.20;6.50;;;;;;;13.89;75.77;98894.86;102428;1294;649101;-74
2024/02/27 11:06:26;;;;;;;10.80;6.10;;;;;;;13.99;75.47;98898.12;104843;1276;94479;-73
2024/02/27 11:09:12;;;;;;;10.30;5.80;;;;;;;14.10;75.56;98897.83;104828;1267;94306;-74
2024/02/27 11:11:42;;;;;;;10.40;5.80;;;;;;;14.24;75.46;98897.84;104666;1267;107859;-73
2024/02/27 11:14:14;;;;;;;11.10;6.10;;;;;;;14.31;75.22;98896.50;104718;1267;95215;-74
2024/02/27 11:16:45;;;;;;;9.70;5.80;;;;;;;14.38;74.90;98895.88;104616;1267;337098;-73
2024/02/27 11:19:21;;;;;;;9.40;5.30;;;;;;;14.46;74.99;98902.27;105707;1256;94207;-74
2024/02/27 11:21:52;;;;;;;7.20;5.20;;;;;;;14.59;75.13;98900.42;105528;1256;94240;-74
2024/02/27 11:24:19;;;;;;;11.20;6.60;;;;;;;14.68;74.89;98903.85;105695;1257;107976;-73